Stations météo

réclame
Mon MeteoGroup
Durham, Grande-Bretagne (99049): Température de l'air & dewpoint: 29.06.2020 02:00:00 - 05.07.2020 02:00:00 (BST)Durham, Grande-Bretagne (99049): Température de l'air -20cm & Température de l'air -100cm: 29.06.2020 02:00:00 - 05.07.2020 02:00:00 (BST)Durham, Grande-Bretagne (99049): Quantités de précipitations: 29.06.2020 02:00:00 - 05.07.2020 02:00:00 (BST)
Date & Time tt [°C] td [°C] tt -20cm [°C] tt -100cm [°C] rr [mm]
05.07.2020 02:00:00 - - - - -
05.07.2020 01:00:00 15,8 13,8 - - 0,0
05.07.2020 00:00:00 16,0 13,8 - - 0,0
04.07.2020 23:00:00 15,9 13,6 - - 0,0
04.07.2020 22:00:00 15,9 13,1 - - 0,0
04.07.2020 21:00:00 16,4 13,2 - - 0,0
04.07.2020 20:00:00 16,8 13,4 - - 0,0
04.07.2020 19:00:00 16,9 12,9 - - 0,0
04.07.2020 18:00:00 17,5 13,2 - - 0,0
04.07.2020 17:00:00 17,8 14,9 - - 0,0
04.07.2020 16:00:00 17,1 13,8 - - 0,0
04.07.2020 15:00:00 16,9 14,4 - - 0,0
04.07.2020 14:00:00 17,4 14,5 - - 0,0
04.07.2020 13:00:00 17,8 14,1 - - 0,0
04.07.2020 12:00:00 18,0 15,4 - - 0,2
04.07.2020 11:00:00 15,1 14,4 - - 0,0
04.07.2020 10:00:00 14,8 14,1 15,4 14,5 0,0
04.07.2020 09:00:00 14,2 13,9 - - 0,0
04.07.2020 08:00:00 14,1 13,8 - - 0,0
04.07.2020 07:00:00 13,5 13,1 - - 0,2
04.07.2020 06:00:00 13,2 12,8 - - 1,0
04.07.2020 05:00:00 13,6 13,0 - - 1,4
04.07.2020 04:00:00 14,2 13,6 - - 1,2
04.07.2020 03:00:00 14,3 13,6 - - 1,8
04.07.2020 02:00:00 14,7 13,3 - - 0,2
04.07.2020 01:00:00 15,1 13,2 - - 0,0
04.07.2020 00:00:00 15,0 13,3 - - 0,0
03.07.2020 23:00:00 14,8 13,4 - - 0,2
03.07.2020 22:00:00 15,4 13,0 - - 0,0
03.07.2020 21:00:00 15,8 12,7 - - 0,0
03.07.2020 20:00:00 16,0 12,4 - - 0,0
03.07.2020 19:00:00 15,9 12,5 - - 0,0
03.07.2020 18:00:00 16,6 12,4 - - 0,0
03.07.2020 17:00:00 16,4 12,2 - - 0,0
03.07.2020 16:00:00 16,9 12,8 - - 0,0
03.07.2020 15:00:00 16,6 12,8 - - 0,0
03.07.2020 14:00:00 15,9 12,3 - - 0,0
03.07.2020 13:00:00 15,5 12,5 - - 0,0
03.07.2020 12:00:00 14,7 12,5 - - 0,0
03.07.2020 11:00:00 14,3 11,9 - - 0,0
03.07.2020 10:00:00 13,1 11,3 15,7 14,7 0,0
03.07.2020 09:00:00 12,3 10,4 - - 0,0
03.07.2020 08:00:00 11,7 10,7 - - 0,0
03.07.2020 07:00:00 11,5 11,0 - - 0,2
03.07.2020 06:00:00 11,3 10,6 - - 1,0
03.07.2020 05:00:00 11,4 10,5 - - 0,2
03.07.2020 04:00:00 11,4 9,9 - - 0,6
03.07.2020 03:00:00 12,0 9,6 - - 0,0
03.07.2020 02:00:00 10,7 10,0 - - 0,0
03.07.2020 01:00:00 10,9 10,1 - - 0,0
03.07.2020 00:00:00 11,8 10,6 - - 0,0
02.07.2020 23:00:00 12,1 10,7 - - 0,0
02.07.2020 22:00:00 12,4 10,3 - - 0,0
02.07.2020 21:00:00 12,1 8,6 - - 0,0
02.07.2020 20:00:00 12,5 8,3 - - 0,0
02.07.2020 19:00:00 13,4 8,3 - - 0,0
02.07.2020 18:00:00 13,4 8,3 - - 0,0
02.07.2020 17:00:00 13,9 8,8 - - 0,0
02.07.2020 16:00:00 15,1 8,6 - - 0,0
02.07.2020 15:00:00 15,5 8,3 - - 0,0
02.07.2020 14:00:00 14,5 9,2 - - 0,0
02.07.2020 13:00:00 14,1 9,9 - - 0,0
02.07.2020 12:00:00 13,2 9,7 - - 0,2
02.07.2020 11:00:00 12,5 10,5 - - 0,0
02.07.2020 10:00:00 11,8 10,6 15,7 14,7 0,0
02.07.2020 09:00:00 10,7 10,0 - - 0,0
02.07.2020 08:00:00 10,2 9,8 - - 0,0
02.07.2020 07:00:00 9,4 9,0 - - 0,4
02.07.2020 06:00:00 9,2 8,8 - - 0,0
02.07.2020 05:00:00 9,3 8,9 - - 0,0
02.07.2020 04:00:00 9,2 8,7 - - 0,0
02.07.2020 03:00:00 9,4 9,0 - - 0,2
02.07.2020 02:00:00 9,8 9,3 - - 0,0
02.07.2020 01:00:00 10,1 9,6 - - 0,8
02.07.2020 00:00:00 10,6 10,1 - - 0,4
01.07.2020 23:00:00 10,7 10,1 - - 0,0
01.07.2020 22:00:00 11,0 10,2 - - 0,2
01.07.2020 21:00:00 11,4 10,6 - - 0,0
01.07.2020 20:00:00 11,7 10,9 - - 0,4
01.07.2020 19:00:00 12,0 11,1 - - 0,0
01.07.2020 18:00:00 12,6 11,6 - - 0,0
01.07.2020 17:00:00 12,7 11,8 - - 0,2
01.07.2020 16:00:00 13,0 12,1 - - 0,6
01.07.2020 15:00:00 13,0 11,9 - - 0,4
01.07.2020 14:00:00 13,8 11,6 - - 0,0
01.07.2020 13:00:00 15,9 12,7 - - 0,2
01.07.2020 12:00:00 17,4 11,9 - - 0,0
01.07.2020 11:00:00 16,0 11,5 - - 0,0
01.07.2020 10:00:00 15,1 12,0 15,7 14,7 0,0
01.07.2020 09:00:00 14,7 11,6 - - 0,0
01.07.2020 08:00:00 13,6 11,5 - - 0,0
01.07.2020 07:00:00 12,4 10,9 - - 0,0
01.07.2020 06:00:00 11,5 10,5 - - 0,0
01.07.2020 05:00:00 11,2 10,3 - - 0,0
01.07.2020 04:00:00 11,4 10,4 - - 0,0
01.07.2020 03:00:00 11,6 10,4 - - 0,0
01.07.2020 02:00:00 11,8 10,2 - - 0,0
01.07.2020 01:00:00 12,1 10,1 - - 0,0
01.07.2020 00:00:00 12,2 10,2 - - 0,0
30.06.2020 23:00:00 12,7 10,3 - - 0,0
30.06.2020 22:00:00 13,2 10,5 - - 0,0
30.06.2020 21:00:00 14,0 10,9 - - 0,0
30.06.2020 20:00:00 14,2 11,0 - - 0,0
30.06.2020 19:00:00 14,5 11,7 - - 0,0
30.06.2020 18:00:00 14,9 11,4 - - 0,0
30.06.2020 17:00:00 15,4 10,8 - - 0,0
30.06.2020 16:00:00 15,8 10,0 - - 0,0
30.06.2020 15:00:00 16,1 10,1 - - 0,0
30.06.2020 14:00:00 16,5 9,1 - - 0,0
30.06.2020 13:00:00 15,7 9,5 - - 0,0
30.06.2020 12:00:00 16,5 9,8 - - 0,0
30.06.2020 11:00:00 14,6 9,3 - - 0,0
30.06.2020 10:00:00 14,7 9,9 15,7 14,9 0,0
30.06.2020 09:00:00 13,9 9,1 - - 0,0
30.06.2020 08:00:00 13,4 9,5 - - 0,0
30.06.2020 07:00:00 13,3 9,6 - - 0,0
30.06.2020 06:00:00 13,1 9,3 - - 0,0
30.06.2020 05:00:00 13,1 9,2 - - 0,0
30.06.2020 04:00:00 13,1 9,4 - - 0,0
30.06.2020 03:00:00 13,0 9,5 - - 0,0
30.06.2020 02:00:00 13,2 9,0 - - 0,0
30.06.2020 01:00:00 13,4 8,3 - - 0,0
30.06.2020 00:00:00 13,3 8,7 - - 0,0
29.06.2020 23:00:00 13,7 8,8 - - 0,0
29.06.2020 22:00:00 13,7 8,5 - - 0,0
29.06.2020 21:00:00 15,0 9,0 - - 0,0
29.06.2020 20:00:00 15,6 8,9 - - 0,0
29.06.2020 19:00:00 16,4 9,1 - - 0,0
29.06.2020 18:00:00 16,3 8,1 - - 0,0
29.06.2020 17:00:00 16,4 8,4 - - 0,0
29.06.2020 16:00:00 16,9 9,2 - - 0,0
29.06.2020 15:00:00 16,7 10,0 - - 0,0
29.06.2020 14:00:00 15,2 10,7 - - 0,0
29.06.2020 13:00:00 15,8 10,1 - - 0,0
29.06.2020 12:00:00 16,6 10,6 - - 0,0
29.06.2020 11:00:00 16,2 10,8 - - 0,0
29.06.2020 10:00:00 14,7 10,5 16,2 15,0 0,2
29.06.2020 09:00:00 13,0 10,3 - - 0,0
29.06.2020 08:00:00 13,2 9,8 - - 0,0
29.06.2020 07:00:00 12,8 9,7 - - 0,0
29.06.2020 06:00:00 12,4 9,5 - - 0,0
29.06.2020 05:00:00 12,3 9,4 - - 0,0
29.06.2020 04:00:00 12,3 9,2 - - 0,0
29.06.2020 03:00:00 12,4 8,9 - - 0,0
29.06.2020 02:00:00 12,2 8,5 - - 0,0

tt = Température de l'air
td = dewpoint
tt -20cm = Température de l'air -20cm
tt -100cm = Température de l'air -100cm
rr = Quantités de précipitations

stations d'obs. à proximité